Aviation Digital Data Service (ADDS)

Output produced by METARs form (1857 UTC 25 September 2020)
found at http://www.aviationweather.gov/metar/data/
 
Forecast for: NFNA (NAUSORI FIJI , FJ)
Text: TAF NFNA 251710Z 2518/2618 11009KT 9999 BKN020 BKN045
Forecast period: 1800 UTC 25 September 2020 to 1800 UTC 26 September 2020
Forecast type: FROM: standard forecast or significant change
Winds: from the ESE (110 degrees) at 10 MPH (9 knots; 4.6 m/s)
Visibility: 6 or more miles (10+ km)
Ceiling: 2000 feet AGL
Clouds: broken clouds at 2000 feet AGL
broken clouds at 4500 feet AGL
Weather: no significant weather forecast for this period
Text: PROB30
Forecast period: 0000 to 0600 UTC 26 September 2020
Forecast type: TEMPORARY: The following changes expected for less than half the time period
Visibility: 3 miles (5 km)
Ceiling: 1500 feet AGL
Clouds: broken clouds at 1500 feet AGL
Weather: SHRA  (rain showers)